sensor_id;sensor_type;location;lat;lon;timestamp;P1;durP1;ratioP1;P2;durP2;ratioP2
42168;SDS011;27838;43.858;25.974;2024-01-06T00:00:34;4.80;;;2.00;;
42168;SDS011;27838;43.858;25.974;2024-01-06T00:03:00;2.45;;;2.13;;
42168;SDS011;27838;43.858;25.974;2024-01-06T00:05:27;3.25;;;2.10;;
42168;SDS011;27838;43.858;25.974;2024-01-06T00:07:53;4.57;;;2.28;;
42168;SDS011;27838;43.858;25.974;2024-01-06T00:10:20;3.95;;;2.22;;
42168;SDS011;27838;43.858;25.974;2024-01-06T00:12:47;4.25;;;2.00;;
42168;SDS011;27838;43.858;25.974;2024-01-06T00:15:13;5.70;;;2.15;;
42168;SDS011;27838;43.858;25.974;2024-01-06T00:17:40;5.35;;;2.58;;
42168;SDS011;27838;43.858;25.974;2024-01-06T00:20:07;5.90;;;2.50;;
42168;SDS011;27838;43.858;25.974;2024-01-06T00:22:33;4.25;;;2.40;;
42168;SDS011;27838;43.858;25.974;2024-01-06T00:25:00;3.90;;;1.95;;
42168;SDS011;27838;43.858;25.974;2024-01-06T00:27:27;3.60;;;2.72;;
42168;SDS011;27838;43.858;25.974;2024-01-06T00:29:53;4.57;;;2.00;;
42168;SDS011;27838;43.858;25.974;2024-01-06T00:32:20;5.25;;;2.28;;
42168;SDS011;27838;43.858;25.974;2024-01-06T00:34:46;4.38;;;2.10;;
42168;SDS011;27838;43.858;25.974;2024-01-06T00:37:13;5.78;;;2.72;;
42168;SDS011;27838;43.858;25.974;2024-01-06T00:39:39;11.07;;;6.03;;
42168;SDS011;27838;43.858;25.974;2024-01-06T00:42:06;13.18;;;7.20;;
42168;SDS011;27838;43.858;25.974;2024-01-06T00:44:34;18.75;;;9.05;;
42168;SDS011;27838;43.858;25.974;2024-01-06T00:47:02;15.18;;;9.13;;
42168;SDS011;27838;43.858;25.974;2024-01-06T00:49:28;12.88;;;7.30;;
42168;SDS011;27838;43.858;25.974;2024-01-06T00:51:55;14.98;;;6.35;;
42168;SDS011;27838;43.858;25.974;2024-01-06T00:54:21;13.18;;;6.80;;
42168;SDS011;27838;43.858;25.974;2024-01-06T00:56:48;12.48;;;6.57;;
42168;SDS011;27838;43.858;25.974;2024-01-06T00:59:14;11.55;;;6.65;;
42168;SDS011;27838;43.858;25.974;2024-01-06T01:01:41;10.50;;;6.55;;
42168;SDS011;27838;43.858;25.974;2024-01-06T01:04:07;13.07;;;6.55;;
42168;SDS011;27838;43.858;25.974;2024-01-06T01:06:35;9.95;;;6.00;;
42168;SDS011;27838;43.858;25.974;2024-01-06T01:09:03;11.82;;;6.28;;
42168;SDS011;27838;43.858;25.974;2024-01-06T01:11:30;12.35;;;6.43;;
42168;SDS011;27838;43.858;25.974;2024-01-06T01:13:57;11.95;;;5.68;;
42168;SDS011;27838;43.858;25.974;2024-01-06T01:16:23;16.55;;;6.28;;
42168;SDS011;27838;43.858;25.974;2024-01-06T01:18:50;13.32;;;7.03;;
42168;SDS011;27838;43.858;25.974;2024-01-06T01:21:16;19.35;;;6.47;;
42168;SDS011;27838;43.858;25.974;2024-01-06T01:23:43;10.93;;;6.22;;
42168;SDS011;27838;43.858;25.974;2024-01-06T01:26:09;10.32;;;6.20;;
42168;SDS011;27838;43.858;25.974;2024-01-06T01:28:36;11.50;;;6.22;;
42168;SDS011;27838;43.858;25.974;2024-01-06T01:31:03;16.42;;;7.70;;
42168;SDS011;27838;43.858;25.974;2024-01-06T01:33:29;19.90;;;8.02;;
42168;SDS011;27838;43.858;25.974;2024-01-06T01:35:58;11.07;;;6.13;;
42168;SDS011;27838;43.858;25.974;2024-01-06T01:38:25;15.40;;;5.80;;
42168;SDS011;27838;43.858;25.974;2024-01-06T01:40:52;12.02;;;7.07;;
42168;SDS011;27838;43.858;25.974;2024-01-06T01:43:18;11.98;;;6.70;;
42168;SDS011;27838;43.858;25.974;2024-01-06T01:45:48;12.70;;;6.53;;
42168;SDS011;27838;43.858;25.974;2024-01-06T01:48:16;14.80;;;6.25;;
42168;SDS011;27838;43.858;25.974;2024-01-06T01:50:43;9.90;;;5.78;;
42168;SDS011;27838;43.858;25.974;2024-01-06T01:53:10;10.73;;;6.15;;
42168;SDS011;27838;43.858;25.974;2024-01-06T01:55:38;12.18;;;6.57;;
42168;SDS011;27838;43.858;25.974;2024-01-06T01:58:07;17.08;;;7.03;;
42168;SDS011;27838;43.858;25.974;2024-01-06T02:00:35;14.32;;;6.93;;
42168;SDS011;27838;43.858;25.974;2024-01-06T02:03:03;11.93;;;6.00;;
42168;SDS011;27838;43.858;25.974;2024-01-06T02:05:31;18.30;;;7.95;;
42168;SDS011;27838;43.858;25.974;2024-01-06T02:07:57;22.83;;;7.70;;
42168;SDS011;27838;43.858;25.974;2024-01-06T02:10:24;17.83;;;7.05;;
42168;SDS011;27838;43.858;25.974;2024-01-06T02:12:51;22.23;;;8.20;;
42168;SDS011;27838;43.858;25.974;2024-01-06T02:15:18;18.88;;;7.80;;
42168;SDS011;27838;43.858;25.974;2024-01-06T02:17:45;13.52;;;6.88;;
42168;SDS011;27838;43.858;25.974;2024-01-06T02:20:11;12.70;;;7.18;;
42168;SDS011;27838;43.858;25.974;2024-01-06T02:22:40;12.77;;;7.00;;
42168;SDS011;27838;43.858;25.974;2024-01-06T02:25:07;20.40;;;7.13;;
42168;SDS011;27838;43.858;25.974;2024-01-06T02:27:40;10.25;;;6.63;;
42168;SDS011;27838;43.858;25.974;2024-01-06T02:30:07;12.30;;;6.20;;
42168;SDS011;27838;43.858;25.974;2024-01-06T02:32:34;14.32;;;6.32;;
42168;SDS011;27838;43.858;25.974;2024-01-06T02:35:00;10.38;;;6.55;;
42168;SDS011;27838;43.858;25.974;2024-01-06T02:37:27;10.82;;;5.93;;
42168;SDS011;27838;43.858;25.974;2024-01-06T02:39:53;11.00;;;6.20;;
42168;SDS011;27838;43.858;25.974;2024-01-06T02:42:20;11.68;;;6.68;;
42168;SDS011;27838;43.858;25.974;2024-01-06T02:44:47;12.02;;;6.03;;
42168;SDS011;27838;43.858;25.974;2024-01-06T02:47:13;11.82;;;6.63;;
42168;SDS011;27838;43.858;25.974;2024-01-06T02:49:40;8.82;;;6.28;;
42168;SDS011;27838;43.858;25.974;2024-01-06T02:52:06;15.10;;;5.80;;
42168;SDS011;27838;43.858;25.974;2024-01-06T02:54:33;13.25;;;5.18;;
42168;SDS011;27838;43.858;25.974;2024-01-06T02:56:59;9.13;;;5.47;;
42168;SDS011;27838;43.858;25.974;2024-01-06T02:59:26;11.27;;;5.78;;
42168;SDS011;27838;43.858;25.974;2024-01-06T03:01:52;9.30;;;5.40;;
42168;SDS011;27838;43.858;25.974;2024-01-06T03:04:19;10.23;;;4.78;;
42168;SDS011;27838;43.858;25.974;2024-01-06T03:06:45;11.88;;;5.55;;
42168;SDS011;27838;43.858;25.974;2024-01-06T03:09:17;17.95;;;5.82;;
42168;SDS011;27838;43.858;25.974;2024-01-06T03:11:44;10.07;;;5.53;;
42168;SDS011;27838;43.858;25.974;2024-01-06T03:14:11;12.73;;;5.95;;
42168;SDS011;27838;43.858;25.974;2024-01-06T03:16:37;10.18;;;5.57;;
42168;SDS011;27838;43.858;25.974;2024-01-06T03:19:04;12.77;;;5.95;;
42168;SDS011;27838;43.858;25.974;2024-01-06T03:21:30;11.20;;;5.25;;
42168;SDS011;27838;43.858;25.974;2024-01-06T03:23:57;12.35;;;6.38;;
42168;SDS011;27838;43.858;25.974;2024-01-06T03:26:24;12.18;;;5.53;;
42168;SDS011;27838;43.858;25.974;2024-01-06T03:28:50;9.23;;;5.70;;
42168;SDS011;27838;43.858;25.974;2024-01-06T03:31:17;7.28;;;5.13;;
42168;SDS011;27838;43.858;25.974;2024-01-06T03:33:43;11.80;;;5.32;;
42168;SDS011;27838;43.858;25.974;2024-01-06T03:36:12;12.20;;;5.28;;
42168;SDS011;27838;43.858;25.974;2024-01-06T03:38:39;13.60;;;5.10;;
42168;SDS011;27838;43.858;25.974;2024-01-06T03:41:05;6.97;;;4.72;;
42168;SDS011;27838;43.858;25.974;2024-01-06T03:43:32;7.03;;;4.45;;
42168;SDS011;27838;43.858;25.974;2024-01-06T03:45:58;5.88;;;4.05;;
42168;SDS011;27838;43.858;25.974;2024-01-06T03:48:25;10.80;;;5.15;;
42168;SDS011;27838;43.858;25.974;2024-01-06T03:50:52;11.95;;;5.38;;
42168;SDS011;27838;43.858;25.974;2024-01-06T03:53:18;9.60;;;5.05;;
42168;SDS011;27838;43.858;25.974;2024-01-06T03:55:45;8.38;;;5.13;;
42168;SDS011;27838;43.858;25.974;2024-01-06T03:58:11;8.07;;;4.97;;
42168;SDS011;27838;43.858;25.974;2024-01-06T04:00:38;12.40;;;5.68;;
42168;SDS011;27838;43.858;25.974;2024-01-06T04:03:05;8.35;;;5.60;;
42168;SDS011;27838;43.858;25.974;2024-01-06T04:05:32;9.60;;;6.22;;
42168;SDS011;27838;43.858;25.974;2024-01-06T04:07:58;11.10;;;6.57;;
42168;SDS011;27838;43.858;25.974;2024-01-06T04:10:25;12.68;;;7.38;;
42168;SDS011;27838;43.858;25.974;2024-01-06T04:12:51;14.35;;;8.02;;
42168;SDS011;27838;43.858;25.974;2024-01-06T04:15:18;18.33;;;9.90;;
42168;SDS011;27838;43.858;25.974;2024-01-06T04:17:46;17.63;;;11.10;;
42168;SDS011;27838;43.858;25.974;2024-01-06T04:20:15;22.88;;;10.60;;
42168;SDS011;27838;43.858;25.974;2024-01-06T04:22:41;14.63;;;7.28;;
42168;SDS011;27838;43.858;25.974;2024-01-06T04:25:08;11.75;;;6.55;;
42168;SDS011;27838;43.858;25.974;2024-01-06T04:27:34;10.50;;;5.70;;
42168;SDS011;27838;43.858;25.974;2024-01-06T04:30:01;14.60;;;6.15;;
42168;SDS011;27838;43.858;25.974;2024-01-06T04:32:27;13.32;;;7.13;;
42168;SDS011;27838;43.858;25.974;2024-01-06T04:34:54;13.00;;;5.53;;
42168;SDS011;27838;43.858;25.974;2024-01-06T04:37:22;9.15;;;5.40;;
42168;SDS011;27838;43.858;25.974;2024-01-06T04:39:49;10.40;;;5.22;;
42168;SDS011;27838;43.858;25.974;2024-01-06T04:42:16;11.18;;;5.35;;
42168;SDS011;27838;43.858;25.974;2024-01-06T04:44:42;8.88;;;4.43;;
42168;SDS011;27838;43.858;25.974;2024-01-06T04:47:09;8.57;;;4.43;;
42168;SDS011;27838;43.858;25.974;2024-01-06T04:49:35;10.88;;;5.20;;
42168;SDS011;27838;43.858;25.974;2024-01-06T04:52:02;10.48;;;5.43;;
42168;SDS011;27838;43.858;25.974;2024-01-06T04:54:28;12.68;;;5.07;;
42168;SDS011;27838;43.858;25.974;2024-01-06T04:56:55;14.02;;;5.38;;
42168;SDS011;27838;43.858;25.974;2024-01-06T04:59:22;19.02;;;6.85;;
42168;SDS011;27838;43.858;25.974;2024-01-06T05:01:48;10.18;;;6.28;;
42168;SDS011;27838;43.858;25.974;2024-01-06T05:04:16;10.55;;;5.32;;
42168;SDS011;27838;43.858;25.974;2024-01-06T05:06:42;17.27;;;5.72;;
42168;SDS011;27838;43.858;25.974;2024-01-06T05:09:09;15.85;;;6.65;;
42168;SDS011;27838;43.858;25.974;2024-01-06T05:11:36;13.52;;;5.70;;
42168;SDS011;27838;43.858;25.974;2024-01-06T05:14:02;12.65;;;5.85;;
42168;SDS011;27838;43.858;25.974;2024-01-06T05:16:29;13.82;;;6.97;;
42168;SDS011;27838;43.858;25.974;2024-01-06T05:18:55;28.85;;;8.23;;
42168;SDS011;27838;43.858;25.974;2024-01-06T05:21:22;11.23;;;6.50;;
42168;SDS011;27838;43.858;25.974;2024-01-06T05:23:49;12.45;;;6.95;;
42168;SDS011;27838;43.858;25.974;2024-01-06T05:26:15;13.10;;;7.38;;
42168;SDS011;27838;43.858;25.974;2024-01-06T05:28:42;12.43;;;8.13;;
42168;SDS011;27838;43.858;25.974;2024-01-06T05:31:09;11.80;;;6.65;;
42168;SDS011;27838;43.858;25.974;2024-01-06T05:33:35;23.02;;;12.13;;
42168;SDS011;27838;43.858;25.974;2024-01-06T05:36:02;17.83;;;7.68;;
42168;SDS011;27838;43.858;25.974;2024-01-06T05:38:28;17.75;;;7.18;;
42168;SDS011;27838;43.858;25.974;2024-01-06T05:40:55;12.25;;;7.65;;
42168;SDS011;27838;43.858;25.974;2024-01-06T05:43:22;14.40;;;6.63;;
42168;SDS011;27838;43.858;25.974;2024-01-06T05:45:48;11.52;;;6.20;;
42168;SDS011;27838;43.858;25.974;2024-01-06T05:48:15;14.82;;;6.25;;
42168;SDS011;27838;43.858;25.974;2024-01-06T05:50:42;12.13;;;6.03;;
42168;SDS011;27838;43.858;25.974;2024-01-06T05:53:09;14.27;;;6.57;;
42168;SDS011;27838;43.858;25.974;2024-01-06T05:55:35;11.73;;;6.05;;
42168;SDS011;27838;43.858;25.974;2024-01-06T05:58:02;46.50;;;10.98;;
42168;SDS011;27838;43.858;25.974;2024-01-06T06:00:29;12.38;;;7.32;;
42168;SDS011;27838;43.858;25.974;2024-01-06T06:02:56;25.35;;;11.95;;
42168;SDS011;27838;43.858;25.974;2024-01-06T06:05:23;31.40;;;10.50;;
42168;SDS011;27838;43.858;25.974;2024-01-06T06:07:50;21.45;;;7.43;;
42168;SDS011;27838;43.858;25.974;2024-01-06T06:10:16;15.77;;;7.00;;
42168;SDS011;27838;43.858;25.974;2024-01-06T06:12:43;27.13;;;8.93;;
42168;SDS011;27838;43.858;25.974;2024-01-06T06:15:10;24.15;;;8.48;;
42168;SDS011;27838;43.858;25.974;2024-01-06T06:17:37;35.67;;;10.82;;
42168;SDS011;27838;43.858;25.974;2024-01-06T06:20:03;23.05;;;10.40;;
42168;SDS011;27838;43.858;25.974;2024-01-06T06:22:31;39.28;;;10.38;;
42168;SDS011;27838;43.858;25.974;2024-01-06T06:25:01;29.88;;;9.63;;
42168;SDS011;27838;43.858;25.974;2024-01-06T06:27:28;17.00;;;8.20;;
42168;SDS011;27838;43.858;25.974;2024-01-06T06:29:55;20.45;;;7.15;;
42168;SDS011;27838;43.858;25.974;2024-01-06T06:32:22;17.85;;;7.97;;
42168;SDS011;27838;43.858;25.974;2024-01-06T06:34:50;20.73;;;8.73;;
42168;SDS011;27838;43.858;25.974;2024-01-06T06:37:16;22.98;;;9.55;;
42168;SDS011;27838;43.858;25.974;2024-01-06T06:39:43;21.42;;;9.40;;
42168;SDS011;27838;43.858;25.974;2024-01-06T06:42:09;19.35;;;9.45;;
42168;SDS011;27838;43.858;25.974;2024-01-06T06:44:36;22.27;;;10.05;;
42168;SDS011;27838;43.858;25.974;2024-01-06T06:47:03;13.63;;;8.05;;
42168;SDS011;27838;43.858;25.974;2024-01-06T06:49:29;16.25;;;8.32;;
42168;SDS011;27838;43.858;25.974;2024-01-06T06:51:56;18.58;;;9.77;;
42168;SDS011;27838;43.858;25.974;2024-01-06T06:54:22;30.80;;;10.27;;
42168;SDS011;27838;43.858;25.974;2024-01-06T06:56:49;34.50;;;10.73;;
42168;SDS011;27838;43.858;25.974;2024-01-06T06:59:15;31.42;;;11.35;;
42168;SDS011;27838;43.858;25.974;2024-01-06T07:01:42;28.33;;;11.88;;
42168;SDS011;27838;43.858;25.974;2024-01-06T07:04:08;36.45;;;13.00;;
42168;SDS011;27838;43.858;25.974;2024-01-06T07:06:35;26.00;;;10.73;;
42168;SDS011;27838;43.858;25.974;2024-01-06T07:09:01;25.80;;;10.75;;
42168;SDS011;27838;43.858;25.974;2024-01-06T07:11:30;23.13;;;11.20;;
42168;SDS011;27838;43.858;25.974;2024-01-06T07:13:56;22.48;;;10.57;;
42168;SDS011;27838;43.858;25.974;2024-01-06T07:16:23;14.13;;;8.68;;
42168;SDS011;27838;43.858;25.974;2024-01-06T07:18:49;16.02;;;8.43;;
42168;SDS011;27838;43.858;25.974;2024-01-06T07:21:16;14.27;;;7.85;;
42168;SDS011;27838;43.858;25.974;2024-01-06T07:23:42;15.55;;;8.18;;
42168;SDS011;27838;43.858;25.974;2024-01-06T07:26:09;22.00;;;10.15;;
42168;SDS011;27838;43.858;25.974;2024-01-06T07:28:35;24.73;;;10.82;;
42168;SDS011;27838;43.858;25.974;2024-01-06T07:31:02;27.02;;;13.50;;
42168;SDS011;27838;43.858;25.974;2024-01-06T07:33:29;24.35;;;11.77;;
42168;SDS011;27838;43.858;25.974;2024-01-06T07:35:56;25.23;;;11.35;;
42168;SDS011;27838;43.858;25.974;2024-01-06T07:38:22;20.30;;;10.38;;
42168;SDS011;27838;43.858;25.974;2024-01-06T07:40:49;32.60;;;12.45;;
42168;SDS011;27838;43.858;25.974;2024-01-06T07:43:15;33.30;;;11.77;;
42168;SDS011;27838;43.858;25.974;2024-01-06T07:45:42;33.38;;;17.80;;
42168;SDS011;27838;43.858;25.974;2024-01-06T07:48:08;18.08;;;10.43;;
42168;SDS011;27838;43.858;25.974;2024-01-06T07:50:35;28.60;;;12.52;;
42168;SDS011;27838;43.858;25.974;2024-01-06T07:53:02;35.45;;;14.80;;
42168;SDS011;27838;43.858;25.974;2024-01-06T07:55:28;30.00;;;14.10;;
42168;SDS011;27838;43.858;25.974;2024-01-06T07:57:55;38.72;;;16.92;;
42168;SDS011;27838;43.858;25.974;2024-01-06T08:00:21;47.05;;;16.95;;
42168;SDS011;27838;43.858;25.974;2024-01-06T08:02:48;45.53;;;17.88;;
42168;SDS011;27838;43.858;25.974;2024-01-06T08:05:14;52.88;;;18.23;;
42168;SDS011;27838;43.858;25.974;2024-01-06T08:07:41;45.97;;;17.95;;
42168;SDS011;27838;43.858;25.974;2024-01-06T08:10:08;43.55;;;16.80;;
42168;SDS011;27838;43.858;25.974;2024-01-06T08:12:34;40.25;;;17.65;;
42168;SDS011;27838;43.858;25.974;2024-01-06T08:15:01;37.03;;;16.35;;
42168;SDS011;27838;43.858;25.974;2024-01-06T08:17:28;32.80;;;14.25;;
42168;SDS011;27838;43.858;25.974;2024-01-06T08:19:54;22.48;;;11.05;;
42168;SDS011;27838;43.858;25.974;2024-01-06T08:22:21;27.98;;;16.08;;
42168;SDS011;27838;43.858;25.974;2024-01-06T08:24:48;31.92;;;12.70;;
42168;SDS011;27838;43.858;25.974;2024-01-06T08:27:14;25.90;;;13.27;;
42168;SDS011;27838;43.858;25.974;2024-01-06T08:29:41;27.15;;;13.82;;
42168;SDS011;27838;43.858;25.974;2024-01-06T08:32:07;33.75;;;13.80;;
42168;SDS011;27838;43.858;25.974;2024-01-06T08:34:35;44.97;;;17.20;;
42168;SDS011;27838;43.858;25.974;2024-01-06T08:37:01;52.17;;;17.83;;
42168;SDS011;27838;43.858;25.974;2024-01-06T08:39:29;41.10;;;16.40;;
42168;SDS011;27838;43.858;25.974;2024-01-06T08:41:55;41.25;;;16.75;;
42168;SDS011;27838;43.858;25.974;2024-01-06T08:44:22;40.05;;;15.65;;
42168;SDS011;27838;43.858;25.974;2024-01-06T08:46:48;46.17;;;18.33;;
42168;SDS011;27838;43.858;25.974;2024-01-06T08:49:15;36.85;;;16.45;;
42168;SDS011;27838;43.858;25.974;2024-01-06T08:51:42;41.70;;;17.67;;
42168;SDS011;27838;43.858;25.974;2024-01-06T08:54:09;41.25;;;16.55;;
42168;SDS011;27838;43.858;25.974;2024-01-06T08:56:35;34.60;;;13.20;;
42168;SDS011;27838;43.858;25.974;2024-01-06T08:59:02;23.52;;;11.07;;
42168;SDS011;27838;43.858;25.974;2024-01-06T09:01:29;25.73;;;11.13;;
42168;SDS011;27838;43.858;25.974;2024-01-06T09:03:57;22.90;;;10.30;;
42168;SDS011;27838;43.858;25.974;2024-01-06T09:06:24;14.63;;;8.80;;
42168;SDS011;27838;43.858;25.974;2024-01-06T09:08:50;15.27;;;8.98;;
42168;SDS011;27838;43.858;25.974;2024-01-06T09:11:17;18.35;;;11.93;;
42168;SDS011;27838;43.858;25.974;2024-01-06T09:13:43;28.33;;;16.23;;
42168;SDS011;27838;43.858;25.974;2024-01-06T09:16:10;47.47;;;33.35;;
42168;SDS011;27838;43.858;25.974;2024-01-06T09:18:37;51.33;;;31.80;;
42168;SDS011;27838;43.858;25.974;2024-01-06T09:21:03;50.67;;;35.97;;
42168;SDS011;27838;43.858;25.974;2024-01-06T09:23:30;43.60;;;28.73;;
42168;SDS011;27838;43.858;25.974;2024-01-06T09:25:57;42.72;;;23.38;;
42168;SDS011;27838;43.858;25.974;2024-01-06T09:28:23;38.40;;;25.17;;
42168;SDS011;27838;43.858;25.974;2024-01-06T09:30:50;47.88;;;22.08;;
42168;SDS011;27838;43.858;25.974;2024-01-06T09:33:19;42.88;;;20.92;;
42168;SDS011;27838;43.858;25.974;2024-01-06T09:35:46;47.28;;;19.38;;
42168;SDS011;27838;43.858;25.974;2024-01-06T09:38:13;48.38;;;19.00;;
42168;SDS011;27838;43.858;25.974;2024-01-06T09:40:43;58.35;;;21.55;;
42168;SDS011;27838;43.858;25.974;2024-01-06T09:43:10;33.33;;;15.65;;
42168;SDS011;27838;43.858;25.974;2024-01-06T09:45:38;35.40;;;13.85;;
42168;SDS011;27838;43.858;25.974;2024-01-06T09:48:12;30.95;;;12.43;;
42168;SDS011;27838;43.858;25.974;2024-01-06T09:50:43;31.48;;;14.10;;
42168;SDS011;27838;43.858;25.974;2024-01-06T09:53:10;36.40;;;17.00;;
42168;SDS011;27838;43.858;25.974;2024-01-06T09:55:37;45.60;;;19.15;;
42168;SDS011;27838;43.858;25.974;2024-01-06T09:58:05;52.20;;;15.40;;
42168;SDS011;27838;43.858;25.974;2024-01-06T10:00:32;44.50;;;20.30;;
42168;SDS011;27838;43.858;25.974;2024-01-06T10:02:58;40.08;;;21.45;;
42168;SDS011;27838;43.858;25.974;2024-01-06T10:05:25;45.35;;;19.75;;
42168;SDS011;27838;43.858;25.974;2024-01-06T10:07:51;36.15;;;17.40;;
42168;SDS011;27838;43.858;25.974;2024-01-06T10:10:18;42.78;;;19.50;;
42168;SDS011;27838;43.858;25.974;2024-01-06T10:12:45;39.47;;;19.17;;
42168;SDS011;27838;43.858;25.974;2024-01-06T10:15:11;40.45;;;18.50;;
42168;SDS011;27838;43.858;25.974;2024-01-06T10:17:41;49.13;;;18.15;;
42168;SDS011;27838;43.858;25.974;2024-01-06T10:20:08;48.42;;;18.33;;
42168;SDS011;27838;43.858;25.974;2024-01-06T10:22:37;39.15;;;15.43;;
42168;SDS011;27838;43.858;25.974;2024-01-06T10:25:05;25.90;;;13.07;;
42168;SDS011;27838;43.858;25.974;2024-01-06T10:27:39;23.35;;;12.52;;
42168;SDS011;27838;43.858;25.974;2024-01-06T10:30:07;38.47;;;17.80;;
42168;SDS011;27838;43.858;25.974;2024-01-06T10:32:35;35.45;;;16.67;;
42168;SDS011;27838;43.858;25.974;2024-01-06T10:35:03;34.58;;;14.30;;
42168;SDS011;27838;43.858;25.974;2024-01-06T10:37:31;29.98;;;14.73;;
42168;SDS011;27838;43.858;25.974;2024-01-06T10:40:07;31.35;;;15.90;;
42168;SDS011;27838;43.858;25.974;2024-01-06T10:42:38;33.00;;;12.45;;
42168;SDS011;27838;43.858;25.974;2024-01-06T10:45:09;23.10;;;11.65;;
42168;SDS011;27838;43.858;25.974;2024-01-06T10:47:37;18.75;;;10.48;;
42168;SDS011;27838;43.858;25.974;2024-01-06T10:50:05;21.50;;;11.63;;
42168;SDS011;27838;43.858;25.974;2024-01-06T10:52:32;24.02;;;14.75;;
42168;SDS011;27838;43.858;25.974;2024-01-06T10:55:00;26.10;;;15.20;;
42168;SDS011;27838;43.858;25.974;2024-01-06T10:57:28;28.17;;;15.18;;
42168;SDS011;27838;43.858;25.974;2024-01-06T10:59:57;29.67;;;17.52;;
42168;SDS011;27838;43.858;25.974;2024-01-06T11:02:25;27.77;;;16.48;;
42168;SDS011;27838;43.858;25.974;2024-01-06T11:04:52;29.50;;;15.98;;
42168;SDS011;27838;43.858;25.974;2024-01-06T11:07:24;23.20;;;13.43;;
42168;SDS011;27838;43.858;25.974;2024-01-06T11:10:02;32.53;;;14.48;;
42168;SDS011;27838;43.858;25.974;2024-01-06T11:12:32;25.33;;;11.63;;
42168;SDS011;27838;43.858;25.974;2024-01-06T11:14:59;19.70;;;11.63;;
42168;SDS011;27838;43.858;25.974;2024-01-06T11:20:23;21.95;;;10.13;;
42168;SDS011;27838;43.858;25.974;2024-01-06T11:22:53;15.75;;;10.50;;
42168;SDS011;27838;43.858;25.974;2024-01-06T11:25:21;20.73;;;10.00;;
42168;SDS011;27838;43.858;25.974;2024-01-06T11:27:48;19.83;;;10.80;;
42168;SDS011;27838;43.858;25.974;2024-01-06T11:30:23;25.40;;;11.23;;
42168;SDS011;27838;43.858;25.974;2024-01-06T11:32:52;21.92;;;11.05;;
42168;SDS011;27838;43.858;25.974;2024-01-06T11:35:19;27.08;;;10.35;;
42168;SDS011;27838;43.858;25.974;2024-01-06T11:40:23;20.80;;;10.85;;
42168;SDS011;27838;43.858;25.974;2024-01-06T11:43:10;25.88;;;13.40;;
42168;SDS011;27838;43.858;25.974;2024-01-06T11:45:38;25.33;;;14.00;;
42168;SDS011;27838;43.858;25.974;2024-01-06T11:48:07;24.85;;;14.88;;
42168;SDS011;27838;43.858;25.974;2024-01-06T11:50:37;28.13;;;15.20;;
42168;SDS011;27838;43.858;25.974;2024-01-06T11:53:05;26.90;;;15.02;;
42168;SDS011;27838;43.858;25.974;2024-01-06T11:55:35;25.90;;;14.75;;
42168;SDS011;27838;43.858;25.974;2024-01-06T11:58:02;26.33;;;14.45;;
42168;SDS011;27838;43.858;25.974;2024-01-06T12:00:30;28.63;;;15.00;;
42168;SDS011;27838;43.858;25.974;2024-01-06T12:02:59;27.15;;;15.10;;
42168;SDS011;27838;43.858;25.974;2024-01-06T12:05:27;22.55;;;15.93;;
42168;SDS011;27838;43.858;25.974;2024-01-06T12:07:54;27.42;;;15.13;;
42168;SDS011;27838;43.858;25.974;2024-01-06T12:10:30;27.38;;;15.02;;
42168;SDS011;27838;43.858;25.974;2024-01-06T12:12:58;26.45;;;14.95;;
42168;SDS011;27838;43.858;25.974;2024-01-06T12:15:29;33.75;;;18.60;;
42168;SDS011;27838;43.858;25.974;2024-01-06T12:17:56;34.70;;;19.35;;
42168;SDS011;27838;43.858;25.974;2024-01-06T12:20:23;35.63;;;18.90;;
42168;SDS011;27838;43.858;25.974;2024-01-06T12:22:54;23.25;;;15.18;;
42168;SDS011;27838;43.858;25.974;2024-01-06T12:25:21;28.17;;;16.42;;
42168;SDS011;27838;43.858;25.974;2024-01-06T12:27:49;23.80;;;13.50;;
42168;SDS011;27838;43.858;25.974;2024-01-06T12:30:18;25.98;;;13.13;;
42168;SDS011;27838;43.858;25.974;2024-01-06T12:32:46;31.02;;;15.15;;
42168;SDS011;27838;43.858;25.974;2024-01-06T12:35:15;31.50;;;15.35;;
42168;SDS011;27838;43.858;25.974;2024-01-06T12:37:42;24.38;;;14.02;;
42168;SDS011;27838;43.858;25.974;2024-01-06T12:40:10;34.45;;;16.23;;
42168;SDS011;27838;43.858;25.974;2024-01-06T12:42:38;30.02;;;14.88;;
42168;SDS011;27838;43.858;25.974;2024-01-06T12:45:05;38.83;;;13.05;;
42168;SDS011;27838;43.858;25.974;2024-01-06T12:47:33;36.78;;;14.63;;
42168;SDS011;27838;43.858;25.974;2024-01-06T12:50:00;27.92;;;15.18;;
42168;SDS011;27838;43.858;25.974;2024-01-06T12:52:26;28.20;;;15.18;;
42168;SDS011;27838;43.858;25.974;2024-01-06T12:54:53;42.15;;;17.00;;
42168;SDS011;27838;43.858;25.974;2024-01-06T12:57:19;33.33;;;16.25;;
42168;SDS011;27838;43.858;25.974;2024-01-06T12:59:46;32.95;;;15.68;;
42168;SDS011;27838;43.858;25.974;2024-01-06T13:02:13;30.50;;;15.70;;
42168;SDS011;27838;43.858;25.974;2024-01-06T13:04:39;30.77;;;16.10;;
42168;SDS011;27838;43.858;25.974;2024-01-06T13:07:06;31.38;;;13.57;;
42168;SDS011;27838;43.858;25.974;2024-01-06T13:09:32;23.60;;;12.18;;
42168;SDS011;27838;43.858;25.974;2024-01-06T13:12:00;30.45;;;12.80;;
42168;SDS011;27838;43.858;25.974;2024-01-06T13:14:27;27.95;;;13.90;;
42168;SDS011;27838;43.858;25.974;2024-01-06T13:16:55;27.23;;;14.90;;
42168;SDS011;27838;43.858;25.974;2024-01-06T13:19:21;22.73;;;14.13;;
42168;SDS011;27838;43.858;25.974;2024-01-06T13:21:49;26.58;;;13.60;;
42168;SDS011;27838;43.858;25.974;2024-01-06T13:24:15;35.83;;;15.05;;
42168;SDS011;27838;43.858;25.974;2024-01-06T13:26:42;26.92;;;13.20;;
42168;SDS011;27838;43.858;25.974;2024-01-06T13:29:08;28.33;;;15.18;;
42168;SDS011;27838;43.858;25.974;2024-01-06T13:31:35;29.98;;;13.98;;
42168;SDS011;27838;43.858;25.974;2024-01-06T13:34:02;22.88;;;10.93;;
42168;SDS011;27838;43.858;25.974;2024-01-06T13:36:29;35.38;;;12.30;;
42168;SDS011;27838;43.858;25.974;2024-01-06T13:38:56;25.80;;;12.23;;
42168;SDS011;27838;43.858;25.974;2024-01-06T13:41:24;24.50;;;11.98;;
42168;SDS011;27838;43.858;25.974;2024-01-06T13:43:51;28.60;;;12.60;;
42168;SDS011;27838;43.858;25.974;2024-01-06T13:46:19;35.53;;;13.23;;
42168;SDS011;27838;43.858;25.974;2024-01-06T13:48:46;23.90;;;12.52;;
42168;SDS011;27838;43.858;25.974;2024-01-06T13:51:12;28.60;;;16.15;;
42168;SDS011;27838;43.858;25.974;2024-01-06T13:53:39;33.72;;;17.83;;
42168;SDS011;27838;43.858;25.974;2024-01-06T13:56:06;32.92;;;14.75;;
42168;SDS011;27838;43.858;25.974;2024-01-06T13:58:32;29.25;;;13.10;;
42168;SDS011;27838;43.858;25.974;2024-01-06T14:01:00;28.88;;;13.50;;
42168;SDS011;27838;43.858;25.974;2024-01-06T14:03:27;30.10;;;13.55;;
42168;SDS011;27838;43.858;25.974;2024-01-06T14:05:54;30.67;;;12.30;;
42168;SDS011;27838;43.858;25.974;2024-01-06T14:08:20;31.75;;;13.30;;
42168;SDS011;27838;43.858;25.974;2024-01-06T14:10:47;31.83;;;13.73;;
42168;SDS011;27838;43.858;25.974;2024-01-06T14:13:13;30.48;;;14.02;;
42168;SDS011;27838;43.858;25.974;2024-01-06T14:15:40;43.90;;;15.85;;
42168;SDS011;27838;43.858;25.974;2024-01-06T14:18:07;27.25;;;14.40;;
42168;SDS011;27838;43.858;25.974;2024-01-06T14:20:35;32.97;;;14.70;;